createdAt,value
2022-08-11T00:00:15.864Z,25.32
2022-08-11T00:05:22.003Z,25.32
2022-08-11T00:10:38.276Z,25.32
2022-08-11T00:15:44.929Z,25.30
2022-08-11T00:20:58.640Z,25.29
2022-08-11T00:26:08.014Z,25.27
2022-08-11T00:31:31.357Z,25.26
2022-08-11T00:36:47.709Z,25.28
2022-08-11T00:42:03.534Z,25.29
2022-08-11T00:47:28.893Z,25.29
2022-08-11T00:52:40.987Z,25.29
2022-08-11T00:58:21.875Z,25.25
2022-08-11T01:04:10.611Z,25.22
2022-08-11T01:09:43.682Z,25.19
2022-08-11T01:15:28.986Z,25.15
2022-08-11T01:21:01.552Z,25.13
2022-08-11T01:26:40.396Z,25.12
2022-08-11T01:32:15.126Z,25.12
2022-08-11T01:37:37.277Z,25.09
2022-08-11T01:43:33.952Z,25.06
2022-08-11T01:50:06.721Z,25.02
2022-08-11T01:55:06.199Z,24.98
2022-08-11T02:00:15.540Z,24.95
2022-08-11T02:05:55.806Z,24.95
2022-08-11T02:11:18.391Z,24.96
2022-08-11T02:16:30.397Z,24.98
2022-08-11T02:21:46.110Z,24.99
2022-08-11T02:27:06.468Z,25.06
2022-08-11T02:32:30.139Z,25.01
2022-08-11T02:37:59.738Z,25.00
2022-08-11T02:43:03.338Z,24.99
2022-08-11T02:48:29.269Z,25.00
2022-08-11T02:53:37.584Z,24.99
2022-08-11T02:59:32.161Z,25.00
2022-08-11T03:05:06.367Z,24.97
2022-08-11T03:10:28.141Z,24.98
2022-08-11T03:15:59.237Z,24.98
2022-08-11T03:21:02.423Z,24.96
2022-08-11T03:26:18.146Z,24.98
2022-08-11T03:31:26.253Z,24.99
2022-08-11T03:37:16.148Z,25.02
2022-08-11T03:42:26.834Z,25.07
2022-08-11T03:47:52.364Z,25.10
2022-08-11T03:53:05.191Z,25.13
2022-08-11T03:58:41.548Z,25.18
2022-08-11T04:04:00.302Z,25.25
2022-08-11T04:09:38.557Z,25.32
2022-08-11T04:15:07.459Z,25.52
2022-08-11T04:20:40.889Z,25.74
2022-08-11T04:25:59.511Z,25.94
2022-08-11T04:31:05.769Z,26.11
2022-08-11T04:36:18.163Z,26.17
2022-08-11T04:41:21.371Z,26.26
2022-08-11T04:46:34.093Z,26.49
2022-08-11T04:51:59.108Z,26.48
2022-08-11T04:57:10.713Z,26.43
2022-08-11T05:02:35.272Z,26.59
2022-08-11T05:07:51.689Z,26.69
2022-08-11T05:13:01.324Z,26.63
2022-08-11T05:18:22.827Z,26.56
2022-08-11T05:23:28.084Z,26.60
2022-08-11T05:28:38.550Z,26.81
2022-08-11T05:34:26.620Z,27.17
2022-08-11T05:39:41.909Z,27.43
2022-08-11T05:44:50.294Z,27.50
2022-08-11T05:49:54.254Z,27.73
2022-08-11T05:55:06.119Z,27.77
2022-08-11T06:00:11.557Z,28.01
2022-08-11T06:05:16.234Z,28.26
2022-08-11T06:10:39.521Z,28.57
2022-08-11T06:15:48.472Z,29.76
2022-08-11T06:20:54.486Z,31.53
2022-08-11T06:26:10.133Z,33.81
2022-08-11T06:31:21.852Z,34.75
2022-08-11T06:36:55.936Z,33.96
2022-08-11T06:42:12.969Z,33.64
2022-08-11T06:47:21.279Z,34.55
2022-08-11T06:52:36.445Z,35.28
2022-08-11T06:57:41.188Z,34.59
2022-08-11T07:02:58.714Z,33.98
2022-08-11T07:08:33.874Z,33.17
2022-08-11T07:13:45.539Z,32.41
2022-08-11T07:18:50.647Z,31.66
2022-08-11T07:23:56.780Z,31.23
2022-08-11T07:29:01.410Z,30.83
2022-08-11T07:34:23.384Z,31.00
2022-08-11T07:39:33.346Z,31.24
2022-08-11T07:44:48.136Z,30.94
2022-08-11T07:49:57.498Z,30.99
2022-08-11T07:55:10.344Z,31.00
2022-08-11T08:00:14.859Z,30.70
2022-08-11T08:05:21.395Z,30.72
2022-08-11T08:10:26.706Z,30.89
2022-08-11T08:15:31.308Z,31.24
2022-08-11T08:20:54.562Z,31.13
2022-08-11T08:25:59.526Z,30.98
2022-08-11T08:31:03.043Z,31.09
2022-08-11T08:36:06.912Z,31.34
2022-08-11T08:41:13.266Z,31.26
2022-08-11T08:46:30.716Z,31.15
2022-08-11T08:51:58.772Z,30.89
2022-08-11T08:57:06.450Z,30.97
2022-08-11T09:02:10.765Z,31.14
2022-08-11T09:07:17.591Z,30.93
2022-08-11T09:12:38.686Z,30.66
2022-08-11T09:17:49.023Z,30.54
2022-08-11T09:23:29.855Z,30.38
2022-08-11T09:28:24.008Z,30.25
2022-08-11T09:33:30.685Z,30.14
2022-08-11T09:38:44.053Z,30.03
2022-08-11T09:43:51.181Z,29.91
2022-08-11T09:48:58.330Z,29.86
2022-08-11T09:54:04.168Z,29.88
2022-08-11T09:59:08.596Z,30.06
2022-08-11T10:04:17.887Z,30.09
2022-08-11T10:09:24.321Z,29.82
2022-08-11T10:14:35.070Z,29.64
2022-08-11T10:19:39.794Z,29.68
2022-08-11T10:24:45.202Z,29.75
2022-08-11T10:29:51.123Z,29.87
2022-08-11T10:34:57.810Z,29.80
2022-08-11T10:40:01.780Z,29.86
2022-08-11T10:45:08.730Z,30.03
2022-08-11T10:50:14.404Z,30.25
2022-08-11T10:55:18.246Z,30.18
2022-08-11T11:00:21.988Z,30.00
2022-08-11T11:05:30.773Z,29.70
2022-08-11T11:10:36.668Z,29.54
2022-08-11T11:15:47.059Z,29.42
2022-08-11T11:20:56.194Z,29.40
2022-08-11T11:26:28.794Z,29.44
2022-08-11T11:31:56.292Z,29.35
2022-08-11T11:37:01.529Z,29.35
2022-08-11T11:42:09.451Z,29.28
2022-08-11T11:47:14.316Z,29.18
2022-08-11T11:52:21.435Z,29.28
2022-08-11T11:57:25.263Z,29.32
2022-08-11T12:02:28.948Z,29.31
2022-08-11T12:07:34.099Z,29.27
2022-08-11T12:12:37.986Z,29.19
2022-08-11T12:17:41.969Z,29.17
2022-08-11T12:22:46.141Z,29.20
2022-08-11T12:27:50.172Z,29.22
2022-08-11T12:32:54.109Z,29.26
2022-08-11T12:38:03.677Z,29.25
2022-08-11T12:43:21.065Z,29.18
2022-08-11T12:49:01.157Z,28.94
2022-08-11T12:54:02.637Z,28.98
2022-08-11T12:59:08.949Z,29.03
2022-08-11T13:04:12.336Z,29.10
2022-08-11T13:09:15.957Z,29.10
2022-08-11T13:14:20.674Z,29.06
2022-08-11T13:19:25.475Z,29.08
2022-08-11T13:24:30.141Z,29.01
2022-08-11T13:29:39.004Z,28.98
2022-08-11T13:34:43.746Z,28.77
2022-08-11T13:39:47.676Z,28.60
2022-08-11T13:44:51.450Z,28.49
2022-08-11T13:50:01.028Z,28.53
2022-08-11T13:55:12.572Z,28.50
2022-08-11T14:00:37.905Z,28.48
2022-08-11T14:05:49.152Z,28.54
2022-08-11T14:10:53.668Z,28.65
2022-08-11T14:16:01.877Z,28.65
2022-08-11T14:21:06.462Z,28.52
2022-08-11T14:26:10.967Z,28.49
2022-08-11T14:31:16.328Z,28.42
2022-08-11T14:36:22.919Z,28.40
2022-08-11T14:41:27.384Z,28.33
2022-08-11T14:51:46.805Z,28.12
2022-08-11T14:56:50.606Z,28.07
2022-08-11T15:01:54.171Z,27.83
2022-08-11T15:06:58.141Z,27.74
2022-08-11T15:12:01.482Z,27.83
2022-08-11T15:17:07.656Z,27.78
2022-08-11T15:22:11.515Z,27.68
2022-08-11T15:27:19.733Z,27.57
2022-08-11T15:32:25.436Z,27.46
2022-08-11T15:37:29.855Z,27.43
2022-08-11T15:42:40.965Z,27.41
2022-08-11T15:48:05.356Z,27.33
2022-08-11T15:53:24.440Z,27.24
2022-08-11T15:58:33.189Z,27.20
2022-08-11T16:04:17.131Z,27.14
2022-08-11T16:09:26.465Z,27.01
2022-08-11T16:14:37.813Z,26.85
2022-08-11T16:19:44.248Z,26.75
2022-08-11T16:27:04.133Z,26.70
2022-08-11T16:30:15.566Z,26.58
2022-08-11T16:35:25.712Z,26.49
2022-08-11T16:40:31.480Z,26.47
2022-08-11T16:45:37.168Z,26.43
2022-08-11T16:50:42.507Z,26.38
2022-08-11T16:55:52.044Z,26.31
2022-08-11T17:00:59.839Z,26.22
2022-08-11T17:06:08.120Z,26.17
2022-08-11T17:11:12.453Z,26.16
2022-08-11T17:16:22.723Z,26.15
2022-08-11T17:21:31.893Z,26.08
2022-08-11T17:26:43.896Z,26.05
2022-08-11T17:31:49.050Z,26.03
2022-08-11T17:36:56.622Z,26.00
2022-08-11T17:42:01.546Z,25.97
2022-08-11T17:47:06.498Z,25.97
2022-08-11T17:52:11.117Z,25.94
2022-08-11T17:57:21.100Z,25.93
2022-08-11T18:02:34.870Z,25.92
2022-08-11T18:07:41.357Z,25.90
2022-08-11T18:12:47.894Z,25.89
2022-08-11T18:17:51.376Z,25.89
2022-08-11T18:22:56.765Z,25.89
2022-08-11T18:28:01.444Z,25.88
2022-08-11T18:33:45.222Z,25.85
2022-08-11T18:38:30.843Z,25.78
2022-08-11T18:43:44.007Z,25.75
2022-08-11T18:48:53.070Z,25.68
2022-08-11T18:54:03.297Z,25.67
2022-08-11T18:59:10.261Z,25.64
2022-08-11T19:04:19.307Z,25.60
2022-08-11T19:09:24.372Z,25.59
2022-08-11T19:14:30.388Z,25.57
2022-08-11T19:19:37.613Z,25.54
2022-08-11T19:24:45.437Z,25.51
2022-08-11T19:30:07.926Z,25.47
2022-08-11T19:35:18.124Z,25.41
2022-08-11T19:40:22.816Z,25.37
2022-08-11T19:45:26.785Z,25.32
2022-08-11T19:50:32.539Z,25.29
2022-08-11T19:55:38.423Z,25.28
2022-08-11T20:00:45.344Z,25.25
2022-08-11T20:05:55.509Z,25.21
2022-08-11T20:11:05.763Z,25.19
2022-08-11T20:16:12.319Z,25.15
2022-08-11T20:21:30.911Z,25.13
2022-08-11T20:26:36.865Z,25.11
2022-08-11T20:31:43.988Z,25.08
2022-08-11T20:36:54.482Z,25.06
2022-08-11T20:42:02.193Z,25.01
2022-08-11T20:47:13.079Z,25.02
2022-08-11T20:52:19.192Z,24.99
2022-08-11T20:57:35.494Z,24.96
2022-08-11T21:02:51.740Z,24.95
2022-08-11T21:07:59.226Z,24.91
2022-08-11T21:13:26.297Z,24.88
2022-08-11T21:18:32.197Z,24.84
2022-08-11T21:23:41.208Z,24.79
2022-08-11T21:28:47.042Z,24.77
2022-08-11T21:33:51.496Z,24.73
2022-08-11T21:38:54.820Z,24.73
2022-08-11T21:43:59.011Z,24.71
2022-08-11T21:49:03.429Z,24.68
2022-08-11T21:54:08.333Z,24.67
2022-08-11T21:59:12.780Z,24.66
2022-08-11T22:04:17.350Z,24.67
2022-08-11T22:09:20.866Z,24.63
2022-08-11T22:14:24.501Z,24.62
2022-08-11T22:19:29.000Z,24.58
2022-08-11T22:24:34.454Z,24.53
2022-08-11T22:29:50.826Z,24.51
2022-08-11T22:34:56.978Z,24.47
2022-08-11T22:40:02.584Z,24.42
2022-08-11T22:45:08.775Z,24.39
2022-08-11T22:50:13.534Z,24.37
2022-08-11T22:55:18.020Z,24.33
2022-08-11T23:00:22.206Z,24.29
2022-08-11T23:05:34.927Z,24.26
2022-08-11T23:10:39.670Z,24.25
2022-08-11T23:15:43.757Z,24.25
2022-08-11T23:20:52.833Z,24.23
2022-08-11T23:26:03.693Z,24.24
2022-08-11T23:31:10.513Z,24.23
2022-08-11T23:36:36.063Z,24.22
2022-08-11T23:41:46.875Z,24.20
2022-08-11T23:46:53.801Z,24.21
2022-08-11T23:51:58.152Z,24.18
2022-08-11T23:57:03.524Z,24.19
